sensor_id;sensor_type;location;lat;lon;timestamp;temperature;humidity
41481;DHT22;27217;51.220;5.308;2023-03-14T00:01:54;11.90;99.90
41481;DHT22;27217;51.220;5.308;2023-03-14T00:04:21;11.70;99.90
41481;DHT22;27217;51.220;5.308;2023-03-14T00:06:46;11.80;99.90
41481;DHT22;27217;51.220;5.308;2023-03-14T00:09:13;11.70;99.90
41481;DHT22;27217;51.220;5.308;2023-03-14T00:11:39;11.80;99.90
41481;DHT22;27217;51.220;5.308;2023-03-14T00:14:05;11.70;99.90
41481;DHT22;27217;51.220;5.308;2023-03-14T00:16:31;11.50;99.90
41481;DHT22;27217;51.220;5.308;2023-03-14T00:19:01;11.50;99.90
41481;DHT22;27217;51.220;5.308;2023-03-14T00:21:27;11.50;99.90
41481;DHT22;27217;51.220;5.308;2023-03-14T00:23:52;11.50;99.90
41481;DHT22;27217;51.220;5.308;2023-03-14T00:26:20;11.50;99.90
41481;DHT22;27217;51.220;5.308;2023-03-14T00:28:51;11.40;99.90
41481;DHT22;27217;51.220;5.308;2023-03-14T00:31:17;11.40;99.90
41481;DHT22;27217;51.220;5.308;2023-03-14T00:33:44;11.40;99.90
41481;DHT22;27217;51.220;5.308;2023-03-14T00:36:13;11.40;99.90
41481;DHT22;27217;51.220;5.308;2023-03-14T00:38:40;11.50;99.90
41481;DHT22;27217;51.220;5.308;2023-03-14T00:41:09;11.60;99.90
41481;DHT22;27217;51.220;5.308;2023-03-14T00:43:36;11.60;99.90
41481;DHT22;27217;51.220;5.308;2023-03-14T00:46:03;11.60;99.90
41481;DHT22;27217;51.220;5.308;2023-03-14T00:48:29;11.50;99.90
41481;DHT22;27217;51.220;5.308;2023-03-14T00:50:55;11.60;99.90
41481;DHT22;27217;51.220;5.308;2023-03-14T00:53:21;11.50;99.90
41481;DHT22;27217;51.220;5.308;2023-03-14T00:55:47;11.40;99.90
41481;DHT22;27217;51.220;5.308;2023-03-14T00:58:15;11.40;99.90
41481;DHT22;27217;51.220;5.308;2023-03-14T01:00:42;11.40;99.90
41481;DHT22;27217;51.220;5.308;2023-03-14T01:03:08;11.50;99.90
41481;DHT22;27217;51.220;5.308;2023-03-14T01:05:35;11.40;99.90
41481;DHT22;27217;51.220;5.308;2023-03-14T01:08:01;11.30;99.90
41481;DHT22;27217;51.220;5.308;2023-03-14T01:10:27;11.50;99.90
41481;DHT22;27217;51.220;5.308;2023-03-14T01:12:52;11.50;99.90
41481;DHT22;27217;51.220;5.308;2023-03-14T01:15:18;11.40;99.90
41481;DHT22;27217;51.220;5.308;2023-03-14T01:17:44;11.40;99.90
41481;DHT22;27217;51.220;5.308;2023-03-14T01:20:13;11.60;99.90
41481;DHT22;27217;51.220;5.308;2023-03-14T01:22:39;11.50;99.90
41481;DHT22;27217;51.220;5.308;2023-03-14T01:25:07;11.40;99.90
41481;DHT22;27217;51.220;5.308;2023-03-14T01:27:34;11.10;99.90
41481;DHT22;27217;51.220;5.308;2023-03-14T01:30:00;11.20;99.90
41481;DHT22;27217;51.220;5.308;2023-03-14T01:32:27;11.10;99.90
41481;DHT22;27217;51.220;5.308;2023-03-14T01:34:53;11.20;99.90
41481;DHT22;27217;51.220;5.308;2023-03-14T01:37:20;11.30;99.90
41481;DHT22;27217;51.220;5.308;2023-03-14T01:39:47;11.20;99.90
41481;DHT22;27217;51.220;5.308;2023-03-14T01:42:14;11.00;99.90
41481;DHT22;27217;51.220;5.308;2023-03-14T01:47:18;11.00;99.90
41481;DHT22;27217;51.220;5.308;2023-03-14T01:49:45;11.00;99.90
41481;DHT22;27217;51.220;5.308;2023-03-14T01:52:23;11.00;99.90
41481;DHT22;27217;51.220;5.308;2023-03-14T01:54:54;11.10;99.90
41481;DHT22;27217;51.220;5.308;2023-03-14T01:57:25;11.10;99.90
41481;DHT22;27217;51.220;5.308;2023-03-14T02:00:02;11.10;99.90
41481;DHT22;27217;51.220;5.308;2023-03-14T02:02:34;11.20;99.90
41481;DHT22;27217;51.220;5.308;2023-03-14T02:05:00;10.90;99.90
41481;DHT22;27217;51.220;5.308;2023-03-14T02:07:45;11.10;99.90
41481;DHT22;27217;51.220;5.308;2023-03-14T02:10:15;11.20;99.90
41481;DHT22;27217;51.220;5.308;2023-03-14T02:12:41;10.90;99.90
41481;DHT22;27217;51.220;5.308;2023-03-14T02:15:08;10.90;99.90
41481;DHT22;27217;51.220;5.308;2023-03-14T02:17:35;10.70;99.90
41481;DHT22;27217;51.220;5.308;2023-03-14T02:22:42;10.80;99.90
41481;DHT22;27217;51.220;5.308;2023-03-14T02:27:54;10.80;99.90
41481;DHT22;27217;51.220;5.308;2023-03-14T02:30:22;10.80;99.90
41481;DHT22;27217;51.220;5.308;2023-03-14T02:33:16;10.80;99.90
41481;DHT22;27217;51.220;5.308;2023-03-14T02:40:59;11.00;99.90
41481;DHT22;27217;51.220;5.308;2023-03-14T02:43:25;11.00;99.90
41481;DHT22;27217;51.220;5.308;2023-03-14T02:45:51;11.00;99.90
41481;DHT22;27217;51.220;5.308;2023-03-14T02:50:50;10.70;99.90
41481;DHT22;27217;51.220;5.308;2023-03-14T02:53:20;10.70;99.90
41481;DHT22;27217;51.220;5.308;2023-03-14T02:55:48;10.70;99.90
41481;DHT22;27217;51.220;5.308;2023-03-14T02:58:15;10.70;99.90
41481;DHT22;27217;51.220;5.308;2023-03-14T03:00:41;10.80;99.90
41481;DHT22;27217;51.220;5.308;2023-03-14T03:03:09;10.70;99.90
41481;DHT22;27217;51.220;5.308;2023-03-14T03:05:36;10.80;99.90
41481;DHT22;27217;51.220;5.308;2023-03-14T03:08:02;10.60;99.90
41481;DHT22;27217;51.220;5.308;2023-03-14T03:10:28;10.50;99.90
41481;DHT22;27217;51.220;5.308;2023-03-14T03:12:55;10.60;99.90
41481;DHT22;27217;51.220;5.308;2023-03-14T03:15:21;10.40;99.90
41481;DHT22;27217;51.220;5.308;2023-03-14T03:17:47;10.50;99.90
41481;DHT22;27217;51.220;5.308;2023-03-14T03:20:13;10.60;99.90
41481;DHT22;27217;51.220;5.308;2023-03-14T03:22:39;10.80;99.90
41481;DHT22;27217;51.220;5.308;2023-03-14T03:25:06;10.90;99.90
41481;DHT22;27217;51.220;5.308;2023-03-14T03:27:34;10.80;99.90
41481;DHT22;27217;51.220;5.308;2023-03-14T03:30:00;10.60;99.90
41481;DHT22;27217;51.220;5.308;2023-03-14T03:32:27;10.50;99.90
41481;DHT22;27217;51.220;5.308;2023-03-14T03:34:53;10.00;99.90
41481;DHT22;27217;51.220;5.308;2023-03-14T03:37:19;9.80;99.90
41481;DHT22;27217;51.220;5.308;2023-03-14T03:39:45;9.60;99.90
41481;DHT22;27217;51.220;5.308;2023-03-14T03:42:11;9.40;99.90
41481;DHT22;27217;51.220;5.308;2023-03-14T03:44:37;9.30;99.90
41481;DHT22;27217;51.220;5.308;2023-03-14T03:47:03;9.40;99.90
41481;DHT22;27217;51.220;5.308;2023-03-14T03:49:31;9.50;99.90
41481;DHT22;27217;51.220;5.308;2023-03-14T03:51:57;9.20;99.90
41481;DHT22;27217;51.220;5.308;2023-03-14T03:54:22;9.00;99.90
41481;DHT22;27217;51.220;5.308;2023-03-14T03:56:48;9.00;99.90
41481;DHT22;27217;51.220;5.308;2023-03-14T03:59:15;9.10;99.90
41481;DHT22;27217;51.220;5.308;2023-03-14T04:01:42;9.30;99.90
41481;DHT22;27217;51.220;5.308;2023-03-14T04:04:08;9.10;99.90
41481;DHT22;27217;51.220;5.308;2023-03-14T04:06:34;9.10;99.90
41481;DHT22;27217;51.220;5.308;2023-03-14T04:09:00;9.20;99.90
41481;DHT22;27217;51.220;5.308;2023-03-14T04:11:26;9.30;99.90
41481;DHT22;27217;51.220;5.308;2023-03-14T04:13:52;9.30;99.90
41481;DHT22;27217;51.220;5.308;2023-03-14T04:16:21;9.40;99.90
41481;DHT22;27217;51.220;5.308;2023-03-14T04:18:50;9.30;99.90
41481;DHT22;27217;51.220;5.308;2023-03-14T04:21:16;9.10;99.90
41481;DHT22;27217;51.220;5.308;2023-03-14T04:23:42;9.40;99.90
41481;DHT22;27217;51.220;5.308;2023-03-14T04:26:08;9.40;99.90
41481;DHT22;27217;51.220;5.308;2023-03-14T04:28:34;9.30;99.90
41481;DHT22;27217;51.220;5.308;2023-03-14T04:31:18;9.40;99.90
41481;DHT22;27217;51.220;5.308;2023-03-14T04:33:45;9.40;99.90
41481;DHT22;27217;51.220;5.308;2023-03-14T04:36:10;9.50;99.90
41481;DHT22;27217;51.220;5.308;2023-03-14T04:38:36;9.60;99.90
41481;DHT22;27217;51.220;5.308;2023-03-14T04:41:03;9.40;99.90
41481;DHT22;27217;51.220;5.308;2023-03-14T04:43:29;9.50;99.90
41481;DHT22;27217;51.220;5.308;2023-03-14T04:45:56;9.60;99.90
41481;DHT22;27217;51.220;5.308;2023-03-14T04:48:23;9.70;99.90
41481;DHT22;27217;51.220;5.308;2023-03-14T04:50:51;9.60;99.90
41481;DHT22;27217;51.220;5.308;2023-03-14T04:53:17;9.50;99.90
41481;DHT22;27217;51.220;5.308;2023-03-14T04:55:55;9.50;99.90
41481;DHT22;27217;51.220;5.308;2023-03-14T04:58:21;9.50;99.90
41481;DHT22;27217;51.220;5.308;2023-03-14T05:00:49;9.50;99.90
41481;DHT22;27217;51.220;5.308;2023-03-14T05:03:16;9.50;99.90
41481;DHT22;27217;51.220;5.308;2023-03-14T05:05:44;9.50;99.90
41481;DHT22;27217;51.220;5.308;2023-03-14T05:08:10;9.70;99.90
41481;DHT22;27217;51.220;5.308;2023-03-14T05:10:36;9.50;99.90
41481;DHT22;27217;51.220;5.308;2023-03-14T05:13:01;9.50;99.90
41481;DHT22;27217;51.220;5.308;2023-03-14T05:15:27;9.70;99.90
41481;DHT22;27217;51.220;5.308;2023-03-14T05:17:53;9.60;99.90
41481;DHT22;27217;51.220;5.308;2023-03-14T05:20:20;9.60;99.90
41481;DHT22;27217;51.220;5.308;2023-03-14T05:22:46;9.50;99.90
41481;DHT22;27217;51.220;5.308;2023-03-14T05:25:12;9.60;99.90
41481;DHT22;27217;51.220;5.308;2023-03-14T05:27:38;9.60;99.90
41481;DHT22;27217;51.220;5.308;2023-03-14T05:30:05;9.50;99.90
41481;DHT22;27217;51.220;5.308;2023-03-14T05:32:31;9.70;99.90
41481;DHT22;27217;51.220;5.308;2023-03-14T05:34:57;9.70;99.90
41481;DHT22;27217;51.220;5.308;2023-03-14T05:37:25;9.60;99.90
41481;DHT22;27217;51.220;5.308;2023-03-14T05:39:52;9.70;99.90
41481;DHT22;27217;51.220;5.308;2023-03-14T05:42:18;9.70;99.90
41481;DHT22;27217;51.220;5.308;2023-03-14T05:44:43;9.80;99.90
41481;DHT22;27217;51.220;5.308;2023-03-14T05:47:10;9.70;99.90
41481;DHT22;27217;51.220;5.308;2023-03-14T05:49:35;9.60;99.90
41481;DHT22;27217;51.220;5.308;2023-03-14T05:52:01;9.80;99.90
41481;DHT22;27217;51.220;5.308;2023-03-14T05:54:27;9.70;99.90
41481;DHT22;27217;51.220;5.308;2023-03-14T05:56:54;9.80;99.90
41481;DHT22;27217;51.220;5.308;2023-03-14T05:59:22;9.70;99.90
41481;DHT22;27217;51.220;5.308;2023-03-14T06:01:48;9.60;99.90
41481;DHT22;27217;51.220;5.308;2023-03-14T06:04:14;9.70;99.90
41481;DHT22;27217;51.220;5.308;2023-03-14T06:06:40;9.80;99.90
41481;DHT22;27217;51.220;5.308;2023-03-14T06:09:06;9.80;99.90
41481;DHT22;27217;51.220;5.308;2023-03-14T06:11:31;9.80;99.90
41481;DHT22;27217;51.220;5.308;2023-03-14T06:13:57;9.80;99.90
41481;DHT22;27217;51.220;5.308;2023-03-14T06:16:23;9.90;99.90
41481;DHT22;27217;51.220;5.308;2023-03-14T06:18:49;9.90;99.90
41481;DHT22;27217;51.220;5.308;2023-03-14T06:21:15;9.90;99.90
41481;DHT22;27217;51.220;5.308;2023-03-14T06:23:41;9.80;99.90
41481;DHT22;27217;51.220;5.308;2023-03-14T06:26:07;9.90;99.90
41481;DHT22;27217;51.220;5.308;2023-03-14T06:28:33;9.80;99.90
41481;DHT22;27217;51.220;5.308;2023-03-14T06:30:59;9.80;99.90
41481;DHT22;27217;51.220;5.308;2023-03-14T06:33:26;9.80;99.90
41481;DHT22;27217;51.220;5.308;2023-03-14T06:35:52;9.80;99.90
41481;DHT22;27217;51.220;5.308;2023-03-14T06:38:18;9.90;99.90
41481;DHT22;27217;51.220;5.308;2023-03-14T06:40:44;10.00;99.90
41481;DHT22;27217;51.220;5.308;2023-03-14T06:43:10;9.90;99.90
41481;DHT22;27217;51.220;5.308;2023-03-14T06:45:37;10.10;99.90
41481;DHT22;27217;51.220;5.308;2023-03-14T06:48:03;10.20;99.90
41481;DHT22;27217;51.220;5.308;2023-03-14T06:50:29;10.30;99.90
41481;DHT22;27217;51.220;5.308;2023-03-14T06:52:54;10.30;99.90
41481;DHT22;27217;51.220;5.308;2023-03-14T06:55:20;10.30;99.90
41481;DHT22;27217;51.220;5.308;2023-03-14T06:57:46;10.20;99.90
41481;DHT22;27217;51.220;5.308;2023-03-14T07:00:13;10.30;99.90
41481;DHT22;27217;51.220;5.308;2023-03-14T07:02:40;10.30;99.90
41481;DHT22;27217;51.220;5.308;2023-03-14T07:05:06;10.30;99.90
41481;DHT22;27217;51.220;5.308;2023-03-14T07:07:32;10.60;99.90
41481;DHT22;27217;51.220;5.308;2023-03-14T07:09:58;10.60;99.90
41481;DHT22;27217;51.220;5.308;2023-03-14T07:12:24;10.40;99.90
41481;DHT22;27217;51.220;5.308;2023-03-14T07:14:50;10.40;99.90
41481;DHT22;27217;51.220;5.308;2023-03-14T07:17:16;10.30;99.90
41481;DHT22;27217;51.220;5.308;2023-03-14T07:19:42;10.30;99.90
41481;DHT22;27217;51.220;5.308;2023-03-14T07:22:08;10.10;99.90
41481;DHT22;27217;51.220;5.308;2023-03-14T07:24:34;10.10;99.90
41481;DHT22;27217;51.220;5.308;2023-03-14T07:26:59;10.00;99.90
41481;DHT22;27217;51.220;5.308;2023-03-14T07:29:25;10.10;99.90
41481;DHT22;27217;51.220;5.308;2023-03-14T07:31:51;10.20;99.90
41481;DHT22;27217;51.220;5.308;2023-03-14T07:34:17;10.10;99.90
41481;DHT22;27217;51.220;5.308;2023-03-14T07:36:43;10.00;99.90
41481;DHT22;27217;51.220;5.308;2023-03-14T07:39:09;9.50;99.90
41481;DHT22;27217;51.220;5.308;2023-03-14T07:41:35;9.00;99.90
41481;DHT22;27217;51.220;5.308;2023-03-14T07:44:08;8.70;99.90
41481;DHT22;27217;51.220;5.308;2023-03-14T07:46:33;8.40;99.90
41481;DHT22;27217;51.220;5.308;2023-03-14T07:49:00;8.30;99.90
41481;DHT22;27217;51.220;5.308;2023-03-14T07:51:27;8.20;99.90
41481;DHT22;27217;51.220;5.308;2023-03-14T07:53:52;8.20;99.90
41481;DHT22;27217;51.220;5.308;2023-03-14T07:56:19;8.10;99.90
41481;DHT22;27217;51.220;5.308;2023-03-14T07:58:48;8.10;99.90
41481;DHT22;27217;51.220;5.308;2023-03-14T08:01:18;8.20;99.90
41481;DHT22;27217;51.220;5.308;2023-03-14T08:03:48;8.10;99.90
41481;DHT22;27217;51.220;5.308;2023-03-14T08:06:16;8.10;99.90
41481;DHT22;27217;51.220;5.308;2023-03-14T08:08:42;8.20;99.90
41481;DHT22;27217;51.220;5.308;2023-03-14T08:11:08;8.10;99.90
41481;DHT22;27217;51.220;5.308;2023-03-14T08:13:35;7.60;99.90
41481;DHT22;27217;51.220;5.308;2023-03-14T08:16:00;7.60;99.90
41481;DHT22;27217;51.220;5.308;2023-03-14T08:18:26;7.50;99.90
41481;DHT22;27217;51.220;5.308;2023-03-14T08:20:52;7.50;99.90
41481;DHT22;27217;51.220;5.308;2023-03-14T08:23:18;7.50;99.90
41481;DHT22;27217;51.220;5.308;2023-03-14T08:25:45;7.40;99.90
41481;DHT22;27217;51.220;5.308;2023-03-14T08:28:11;7.40;99.90
41481;DHT22;27217;51.220;5.308;2023-03-14T08:30:36;7.50;99.90
41481;DHT22;27217;51.220;5.308;2023-03-14T08:33:02;7.60;99.90
41481;DHT22;27217;51.220;5.308;2023-03-14T08:35:28;7.60;99.90
41481;DHT22;27217;51.220;5.308;2023-03-14T08:37:54;7.70;99.90
41481;DHT22;27217;51.220;5.308;2023-03-14T08:40:19;7.60;99.90
41481;DHT22;27217;51.220;5.308;2023-03-14T08:42:45;7.60;99.90
41481;DHT22;27217;51.220;5.308;2023-03-14T08:45:14;7.60;99.90
41481;DHT22;27217;51.220;5.308;2023-03-14T08:47:40;7.60;99.90
41481;DHT22;27217;51.220;5.308;2023-03-14T08:50:07;7.60;99.90
41481;DHT22;27217;51.220;5.308;2023-03-14T08:52:33;7.40;99.90
41481;DHT22;27217;51.220;5.308;2023-03-14T08:54:59;7.40;99.90
41481;DHT22;27217;51.220;5.308;2023-03-14T08:57:25;7.50;99.90
41481;DHT22;27217;51.220;5.308;2023-03-14T08:59:55;7.40;99.90
41481;DHT22;27217;51.220;5.308;2023-03-14T09:02:23;7.30;99.90
41481;DHT22;27217;51.220;5.308;2023-03-14T09:04:52;7.40;99.90
41481;DHT22;27217;51.220;5.308;2023-03-14T09:07:18;7.50;99.90
41481;DHT22;27217;51.220;5.308;2023-03-14T09:09:44;7.60;99.90
41481;DHT22;27217;51.220;5.308;2023-03-14T09:12:11;7.60;99.90
41481;DHT22;27217;51.220;5.308;2023-03-14T09:14:36;7.30;99.90
41481;DHT22;27217;51.220;5.308;2023-03-14T09:17:03;7.30;99.90
41481;DHT22;27217;51.220;5.308;2023-03-14T09:19:29;7.50;99.90
41481;DHT22;27217;51.220;5.308;2023-03-14T09:21:55;7.40;99.90
41481;DHT22;27217;51.220;5.308;2023-03-14T09:24:22;7.40;99.90
41481;DHT22;27217;51.220;5.308;2023-03-14T09:26:47;7.70;99.90
41481;DHT22;27217;51.220;5.308;2023-03-14T09:29:13;7.40;99.90
41481;DHT22;27217;51.220;5.308;2023-03-14T09:31:39;7.40;99.90
41481;DHT22;27217;51.220;5.308;2023-03-14T09:34:04;7.40;99.90
41481;DHT22;27217;51.220;5.308;2023-03-14T09:36:31;7.60;99.90
41481;DHT22;27217;51.220;5.308;2023-03-14T09:38:56;7.50;99.90
41481;DHT22;27217;51.220;5.308;2023-03-14T09:41:33;7.70;99.90
41481;DHT22;27217;51.220;5.308;2023-03-14T09:46:29;7.90;99.90
41481;DHT22;27217;51.220;5.308;2023-03-14T09:48:55;7.90;99.90
41481;DHT22;27217;51.220;5.308;2023-03-14T09:51:22;8.00;99.90
41481;DHT22;27217;51.220;5.308;2023-03-14T09:53:50;8.00;99.90
41481;DHT22;27217;51.220;5.308;2023-03-14T09:56:26;8.00;99.90
41481;DHT22;27217;51.220;5.308;2023-03-14T09:59:00;8.30;99.90
41481;DHT22;27217;51.220;5.308;2023-03-14T10:01:31;8.10;99.90
41481;DHT22;27217;51.220;5.308;2023-03-14T10:04:01;8.40;99.90
41481;DHT22;27217;51.220;5.308;2023-03-14T10:06:29;8.60;99.90
41481;DHT22;27217;51.220;5.308;2023-03-14T10:08:56;8.70;99.90
41481;DHT22;27217;51.220;5.308;2023-03-14T10:11:23;8.60;99.90
41481;DHT22;27217;51.220;5.308;2023-03-14T10:14:07;8.70;99.90
41481;DHT22;27217;51.220;5.308;2023-03-14T10:16:44;8.70;99.90
41481;DHT22;27217;51.220;5.308;2023-03-14T10:19:16;8.20;99.90
41481;DHT22;27217;51.220;5.308;2023-03-14T10:21:51;8.20;99.90
41481;DHT22;27217;51.220;5.308;2023-03-14T10:24:34;8.30;99.90
41481;DHT22;27217;51.220;5.308;2023-03-14T10:27:06;8.10;99.90
41481;DHT22;27217;51.220;5.308;2023-03-14T10:29:53;8.10;99.90
41481;DHT22;27217;51.220;5.308;2023-03-14T10:32:20;8.10;99.90
41481;DHT22;27217;51.220;5.308;2023-03-14T10:37:50;8.10;99.90
41481;DHT22;27217;51.220;5.308;2023-03-14T10:40:18;8.30;99.90
41481;DHT22;27217;51.220;5.308;2023-03-14T10:42:44;8.30;99.90
41481;DHT22;27217;51.220;5.308;2023-03-14T10:47:53;8.40;99.90
41481;DHT22;27217;51.220;5.308;2023-03-14T10:50:27;8.10;99.90
41481;DHT22;27217;51.220;5.308;2023-03-14T10:52:55;8.20;99.90
41481;DHT22;27217;51.220;5.308;2023-03-14T10:55:22;8.30;99.90
41481;DHT22;27217;51.220;5.308;2023-03-14T10:57:48;8.40;99.90
41481;DHT22;27217;51.220;5.308;2023-03-14T11:05:28;9.40;99.90
41481;DHT22;27217;51.220;5.308;2023-03-14T11:10:51;10.80;99.90
41481;DHT22;27217;51.220;5.308;2023-03-14T11:13:40;10.10;99.90
41481;DHT22;27217;51.220;5.308;2023-03-14T11:16:52;9.60;99.90
41481;DHT22;27217;51.220;5.308;2023-03-14T11:33:19;9.80;99.90
41481;DHT22;27217;51.220;5.308;2023-03-14T11:36:11;9.80;99.90
41481;DHT22;27217;51.220;5.308;2023-03-14T11:38:49;9.60;99.90
41481;DHT22;27217;51.220;5.308;2023-03-14T11:41:36;9.80;99.90
41481;DHT22;27217;51.220;5.308;2023-03-14T11:44:54;9.80;99.90
41481;DHT22;27217;51.220;5.308;2023-03-14T11:52:55;10.30;99.90
41481;DHT22;27217;51.220;5.308;2023-03-14T11:54:59;11.20;99.90
41481;DHT22;27217;51.220;5.308;2023-03-14T11:57:26;13.10;99.90
41481;DHT22;27217;51.220;5.308;2023-03-14T11:59:59;13.90;99.90
41481;DHT22;27217;51.220;5.308;2023-03-14T12:05:30;10.80;99.90
41481;DHT22;27217;51.220;5.308;2023-03-14T12:10:40;9.40;99.90
41481;DHT22;27217;51.220;5.308;2023-03-14T12:13:10;9.20;99.90
41481;DHT22;27217;51.220;5.308;2023-03-14T12:15:41;8.80;99.90
41481;DHT22;27217;51.220;5.308;2023-03-14T12:18:28;8.90;99.90
41481;DHT22;27217;51.220;5.308;2023-03-14T12:20:57;9.00;99.90
41481;DHT22;27217;51.220;5.308;2023-03-14T12:23:24;9.00;99.90
41481;DHT22;27217;51.220;5.308;2023-03-14T12:28:43;9.20;99.90
41481;DHT22;27217;51.220;5.308;2023-03-14T12:39:40;10.10;99.90
41481;DHT22;27217;51.220;5.308;2023-03-14T12:45:24;9.80;99.90
41481;DHT22;27217;51.220;5.308;2023-03-14T12:47:53;10.80;99.90
41481;DHT22;27217;51.220;5.308;2023-03-14T12:50:31;11.80;99.90
41481;DHT22;27217;51.220;5.308;2023-03-14T13:02:01;14.20;99.90
41481;DHT22;27217;51.220;5.308;2023-03-14T13:04:44;13.90;98.00
41481;DHT22;27217;51.220;5.308;2023-03-14T13:07:13;14.90;94.50
41481;DHT22;27217;51.220;5.308;2023-03-14T13:09:59;14.80;92.80
41481;DHT22;27217;51.220;5.308;2023-03-14T13:12:29;14.30;93.10
41481;DHT22;27217;51.220;5.308;2023-03-14T13:14:58;13.10;94.70
41481;DHT22;27217;51.220;5.308;2023-03-14T13:17:31;12.10;97.70
41481;DHT22;27217;51.220;5.308;2023-03-14T13:20:05;11.40;98.60
41481;DHT22;27217;51.220;5.308;2023-03-14T13:22:36;10.80;99.90
41481;DHT22;27217;51.220;5.308;2023-03-14T13:25:07;10.40;99.90
41481;DHT22;27217;51.220;5.308;2023-03-14T13:27:35;10.30;99.90
41481;DHT22;27217;51.220;5.308;2023-03-14T13:30:24;10.50;99.90
41481;DHT22;27217;51.220;5.308;2023-03-14T13:32:51;10.70;99.90
41481;DHT22;27217;51.220;5.308;2023-03-14T13:35:20;10.80;93.90
41481;DHT22;27217;51.220;5.308;2023-03-14T13:37:47;10.70;89.60
41481;DHT22;27217;51.220;5.308;2023-03-14T13:40:54;10.50;87.40
41481;DHT22;27217;51.220;5.308;2023-03-14T13:43:28;10.70;86.20
41481;DHT22;27217;51.220;5.308;2023-03-14T13:48:28;11.30;86.60
41481;DHT22;27217;51.220;5.308;2023-03-14T13:51:10;12.10;85.90
41481;DHT22;27217;51.220;5.308;2023-03-14T13:54:11;12.40;84.40
41481;DHT22;27217;51.220;5.308;2023-03-14T13:56:38;13.20;76.70
41481;DHT22;27217;51.220;5.308;2023-03-14T13:59:03;12.80;74.10
41481;DHT22;27217;51.220;5.308;2023-03-14T14:01:34;12.00;76.40
41481;DHT22;27217;51.220;5.308;2023-03-14T14:04:16;11.70;79.30
41481;DHT22;27217;51.220;5.308;2023-03-14T14:06:46;11.90;80.80
41481;DHT22;27217;51.220;5.308;2023-03-14T14:09:18;12.20;76.50
41481;DHT22;27217;51.220;5.308;2023-03-14T14:12:04;11.80;72.60
41481;DHT22;27217;51.220;5.308;2023-03-14T14:14:45;11.90;72.20
41481;DHT22;27217;51.220;5.308;2023-03-14T14:17:16;12.70;68.30
41481;DHT22;27217;51.220;5.308;2023-03-14T14:19:42;12.90;68.10
41481;DHT22;27217;51.220;5.308;2023-03-14T14:22:09;12.20;70.30
41481;DHT22;27217;51.220;5.308;2023-03-14T14:24:36;11.50;71.10
41481;DHT22;27217;51.220;5.308;2023-03-14T14:27:16;11.20;72.40
41481;DHT22;27217;51.220;5.308;2023-03-14T14:29:43;11.00;72.10
41481;DHT22;27217;51.220;5.308;2023-03-14T14:34:41;10.80;74.50
41481;DHT22;27217;51.220;5.308;2023-03-14T14:37:25;10.50;74.40
41481;DHT22;27217;51.220;5.308;2023-03-14T14:39:59;10.30;77.50
41481;DHT22;27217;51.220;5.308;2023-03-14T14:42:28;10.50;78.60
41481;DHT22;27217;51.220;5.308;2023-03-14T14:44:56;10.40;77.40
41481;DHT22;27217;51.220;5.308;2023-03-14T14:47:24;10.40;77.20
41481;DHT22;27217;51.220;5.308;2023-03-14T14:49:52;10.10;73.80
41481;DHT22;27217;51.220;5.308;2023-03-14T14:52:20;9.80;73.30
41481;DHT22;27217;51.220;5.308;2023-03-14T14:54:47;9.50;73.90
41481;DHT22;27217;51.220;5.308;2023-03-14T14:57:24;9.30;73.90
41481;DHT22;27217;51.220;5.308;2023-03-14T14:59:51;9.20;75.90
41481;DHT22;27217;51.220;5.308;2023-03-14T15:02:46;9.30;77.10
41481;DHT22;27217;51.220;5.308;2023-03-14T15:05:21;9.20;77.10
41481;DHT22;27217;51.220;5.308;2023-03-14T15:07:48;9.10;78.50
41481;DHT22;27217;51.220;5.308;2023-03-14T15:10:19;9.20;79.70
41481;DHT22;27217;51.220;5.308;2023-03-14T15:12:45;8.90;81.90
41481;DHT22;27217;51.220;5.308;2023-03-14T15:15:13;8.90;82.00
41481;DHT22;27217;51.220;5.308;2023-03-14T15:17:39;9.00;84.70
41481;DHT22;27217;51.220;5.308;2023-03-14T15:20:06;9.30;82.60
41481;DHT22;27217;51.220;5.308;2023-03-14T15:22:33;9.10;81.30
41481;DHT22;27217;51.220;5.308;2023-03-14T15:24:59;9.10;82.80
41481;DHT22;27217;51.220;5.308;2023-03-14T15:27:25;9.10;84.30
41481;DHT22;27217;51.220;5.308;2023-03-14T15:29:51;9.20;84.80
41481;DHT22;27217;51.220;5.308;2023-03-14T15:32:17;9.00;83.80
41481;DHT22;27217;51.220;5.308;2023-03-14T15:34:43;9.00;84.50
41481;DHT22;27217;51.220;5.308;2023-03-14T15:37:14;8.90;83.70
41481;DHT22;27217;51.220;5.308;2023-03-14T15:39:42;8.90;84.90
41481;DHT22;27217;51.220;5.308;2023-03-14T15:42:08;8.90;82.50
41481;DHT22;27217;51.220;5.308;2023-03-14T15:44:34;8.80;83.20
41481;DHT22;27217;51.220;5.308;2023-03-14T15:47:00;8.80;83.60
41481;DHT22;27217;51.220;5.308;2023-03-14T15:49:26;8.60;83.00
41481;DHT22;27217;51.220;5.308;2023-03-14T15:51:53;8.60;82.50
41481;DHT22;27217;51.220;5.308;2023-03-14T15:54:19;8.60;82.50
41481;DHT22;27217;51.220;5.308;2023-03-14T15:56:45;8.50;82.80
41481;DHT22;27217;51.220;5.308;2023-03-14T15:59:10;8.40;82.30
41481;DHT22;27217;51.220;5.308;2023-03-14T16:01:36;8.40;83.10
41481;DHT22;27217;51.220;5.308;2023-03-14T16:04:02;8.30;82.60
41481;DHT22;27217;51.220;5.308;2023-03-14T16:06:31;8.20;83.90
41481;DHT22;27217;51.220;5.308;2023-03-14T16:08:57;8.10;84.00
41481;DHT22;27217;51.220;5.308;2023-03-14T16:11:24;8.10;86.40
41481;DHT22;27217;51.220;5.308;2023-03-14T16:13:49;8.10;87.50
41481;DHT22;27217;51.220;5.308;2023-03-14T16:16:16;8.10;89.30
41481;DHT22;27217;51.220;5.308;2023-03-14T16:18:42;8.20;89.70
41481;DHT22;27217;51.220;5.308;2023-03-14T16:21:13;8.10;90.30
41481;DHT22;27217;51.220;5.308;2023-03-14T16:23:39;8.00;90.80
41481;DHT22;27217;51.220;5.308;2023-03-14T16:26:09;7.90;91.60
41481;DHT22;27217;51.220;5.308;2023-03-14T16:28:35;7.90;92.10
41481;DHT22;27217;51.220;5.308;2023-03-14T16:31:03;7.70;92.50
41481;DHT22;27217;51.220;5.308;2023-03-14T16:33:33;7.70;93.00
41481;DHT22;27217;51.220;5.308;2023-03-14T16:36:01;7.70;92.60
41481;DHT22;27217;51.220;5.308;2023-03-14T16:38:32;7.60;93.10
41481;DHT22;27217;51.220;5.308;2023-03-14T16:41:01;7.50;93.70
41481;DHT22;27217;51.220;5.308;2023-03-14T16:43:27;7.50;93.80
41481;DHT22;27217;51.220;5.308;2023-03-14T16:45:56;7.30;94.40
41481;DHT22;27217;51.220;5.308;2023-03-14T16:48:22;7.10;94.70
41481;DHT22;27217;51.220;5.308;2023-03-14T16:50:49;7.20;95.00
41481;DHT22;27217;51.220;5.308;2023-03-14T16:53:15;7.40;94.50
41481;DHT22;27217;51.220;5.308;2023-03-14T16:55:42;7.40;94.80
41481;DHT22;27217;51.220;5.308;2023-03-14T16:58:08;7.30;95.20
41481;DHT22;27217;51.220;5.308;2023-03-14T17:00:34;7.40;95.70
41481;DHT22;27217;51.220;5.308;2023-03-14T17:03:00;7.40;96.10
41481;DHT22;27217;51.220;5.308;2023-03-14T17:05:26;7.40;96.50
41481;DHT22;27217;51.220;5.308;2023-03-14T17:07:52;7.40;97.40
41481;DHT22;27217;51.220;5.308;2023-03-14T17:10:18;7.40;98.20
41481;DHT22;27217;51.220;5.308;2023-03-14T17:12:44;7.50;97.80
41481;DHT22;27217;51.220;5.308;2023-03-14T17:15:11;7.30;99.00